Time;durP1;ratioP1;P1;durP2;ratioP2;P2;SDS_P1;SDS_P2;PMS_P1;PMS_P2;Temp;Humidity;BMP_temperature;BMP_pressure;BME280_temperature;BME280_humidity;BME280_pressure;Samples;Min_cycle;Max_cycle;Signal;HPM_P1;HPM_P2
2021/12/15 00:01:02;;;;;;;;;46.00;33.33;;;;;10.79;68.13;102679.66;4997616;28;45362;-72
2021/12/15 00:03:28;;;;;;;;;52.33;40.67;;;;;10.85;67.86;102689.06;4997633;28;45572;-70
2021/12/15 00:05:54;;;;;;;;;52.33;42.00;;;;;10.84;68.18;102690.03;4996090;28;47252;-73
2021/12/15 00:08:19;;;;;;;;;53.00;43.67;;;;;10.55;68.40;102646.66;4984075;28;46089;-72
2021/12/15 00:10:48;;;;;;;;;54.33;43.00;;;;;10.72;68.25;102673.03;4976356;28;45541;-74
2021/12/15 00:13:15;;;;;;;;;51.67;38.67;;;;;10.78;68.15;102679.75;4992292;28;45538;-71
2021/12/15 00:15:41;;;;;;;;;53.00;41.67;;;;;10.66;67.98;102660.97;4975511;28;45861;-73
2021/12/15 00:18:06;;;;;;;;;50.00;38.33;;;;;10.83;68.05;102685.66;4985871;28;45520;-73
2021/12/15 00:20:34;;;;;;;;;50.33;42.00;;;;;10.81;68.27;102687.53;4995481;28;45355;-73
2021/12/15 00:23:00;;;;;;;;;52.33;41.00;;;;;10.59;68.20;102641.03;4995875;28;45600;-72
2021/12/15 00:25:29;;;;;;;;;55.00;42.67;;;;;10.80;67.77;102675.19;4995289;28;47496;-73
2021/12/15 00:27:55;;;;;;;;;52.33;42.00;;;;;10.73;67.90;102657.94;4996383;28;45560;-72
2021/12/15 00:30:22;;;;;;;;;52.33;43.00;;;;;10.89;67.85;102683.44;4995696;28;45474;-72
2021/12/15 00:32:48;;;;;;;;;55.67;42.33;;;;;10.32;68.05;102605.56;4997163;28;45302;-70
2021/12/15 00:35:15;;;;;;;;;50.67;40.00;;;;;10.36;67.73;102617.69;4996450;28;45824;-71
2021/12/15 00:37:41;;;;;;;;;49.67;39.33;;;;;10.78;67.77;102683.28;4991077;28;45672;-73
2021/12/15 00:40:10;;;;;;;;;47.33;37.67;;;;;10.50;67.35;102631.00;4977122;28;45166;-72
2021/12/15 00:42:36;;;;;;;;;55.33;44.33;;;;;10.59;67.56;102637.50;4976311;28;45291;-72
2021/12/15 00:45:02;;;;;;;;;50.67;41.67;;;;;10.77;67.82;102664.75;4991609;28;48414;-70
2021/12/15 00:47:28;;;;;;;;;51.00;41.33;;;;;10.81;67.46;102682.22;4978802;28;46522;-71
2021/12/15 00:49:53;;;;;;;;;55.00;42.33;;;;;10.64;67.79;102649.59;4996370;28;45283;-73
2021/12/15 00:52:19;;;;;;;;;52.00;41.33;;;;;10.73;67.64;102671.22;4999596;28;45325;-71
2021/12/15 00:54:44;;;;;;;;;43.67;36.67;;;;;10.53;67.91;102640.56;4998637;28;47220;-72
2021/12/15 00:57:10;;;;;;;;;47.00;37.00;;;;;10.73;67.58;102676.53;4999471;28;45407;-72
2021/12/15 00:59:36;;;;;;;;;51.33;37.33;;;;;10.82;67.43;102679.50;4998583;28;45500;-73
2021/12/15 01:02:03;;;;;;;;;51.67;40.67;;;;;10.82;67.73;102678.63;5000576;28;45366;-72
2021/12/15 01:04:31;;;;;;;;;52.67;40.67;;;;;10.82;67.52;102678.63;4999598;28;48018;-71
2021/12/15 01:07:00;;;;;;;;;47.67;38.00;;;;;10.74;67.29;102683.56;4995299;28;45532;-71
2021/12/15 01:09:32;;;;;;;;;46.33;38.33;;;;;10.62;67.72;102654.16;4980269;28;45319;-72
2021/12/15 01:12:13;;;;;;;;;49.00;38.33;;;;;10.34;67.60;102619.59;4980655;28;45867;-73
2021/12/15 01:20:33;;;;;;;;;54.00;40.00;;;;;10.29;68.19;102611.06;4999734;28;45242;-74
2021/12/15 01:23:04;;;;;;;;;55.33;44.33;;;;;10.43;67.76;102639.47;4999214;28;45262;-71
2021/12/15 01:25:43;;;;;;;;;53.67;41.67;;;;;10.62;68.17;102688.75;4998978;28;45283;-72
2021/12/15 01:28:10;;;;;;;;;50.33;41.33;;;;;10.63;68.06;102674.50;4998609;28;45381;-73
2021/12/15 01:30:41;;;;;;;;;52.00;42.67;;;;;10.63;68.17;102678.94;4999567;28;45353;-72
2021/12/15 01:33:08;;;;;;;;;53.00;41.67;;;;;10.45;68.04;102643.72;4999463;28;45538;-71
2021/12/15 01:35:36;;;;;;;;;54.67;41.67;;;;;10.55;67.99;102660.81;4997638;28;47511;-71
2021/12/15 01:38:02;;;;;;;;;47.33;40.33;;;;;10.57;68.05;102669.53;4999310;28;45420;-71
2021/12/15 01:40:35;;;;;;;;;50.33;41.00;;;;;10.68;68.28;102676.84;4998963;28;45373;-72
2021/12/15 01:43:15;;;;;;;;;42.00;35.00;;;;;10.63;68.08;102668.31;4999894;28;45399;-72
2021/12/15 01:48:26;;;;;;;;;50.67;37.67;;;;;10.64;67.45;102676.19;4996950;28;45732;-71
2021/12/15 01:50:51;;;;;;;;;51.00;40.67;;;;;10.58;67.45;102660.59;4992147;28;45283;-72
2021/12/15 01:53:18;;;;;;;;;50.67;36.67;;;;;10.70;67.40;102682.06;4999404;28;45198;-72
2021/12/15 01:55:46;;;;;;;;;40.00;34.33;;;;;10.60;67.37;102669.34;4999241;28;46504;-71
2021/12/15 01:58:14;;;;;;;;;43.33;36.67;;;;;10.68;66.82;102676.84;4999372;28;45448;-71
2021/12/15 02:00:44;;;;;;;;;36.33;33.33;;;;;10.30;67.41;102608.31;4979026;28;45218;-72
2021/12/15 02:03:10;;;;;;;;;42.00;34.67;;;;;10.77;67.33;102688.69;4979516;28;45416;-73
2021/12/15 02:05:35;;;;;;;;;46.33;35.33;;;;;10.74;66.92;102686.22;4980350;28;46340;-71
2021/12/15 02:08:03;;;;;;;;;43.00;35.00;;;;;10.72;66.71;102677.50;4979671;28;45192;-73
2021/12/15 02:10:32;;;;;;;;;41.00;33.67;;;;;10.64;66.55;102665.56;4978100;28;45379;-72
2021/12/15 02:13:00;;;;;;;;;41.67;34.33;;;;;10.75;66.95;102690.59;4979307;28;45291;-71
2021/12/15 02:15:31;;;;;;;;;43.67;35.67;;;;;10.63;66.96;102674.50;4977665;28;46687;-72
2021/12/15 02:17:58;;;;;;;;;48.67;37.33;;;;;10.74;66.76;102700.38;4996934;28;46337;-74
2021/12/15 02:20:47;;;;;;;;;44.67;36.00;;;;;10.79;66.87;102708.06;4998003;28;45522;-72
2021/12/15 02:23:17;;;;;;;;;47.00;37.00;;;;;10.82;66.84;102710.56;4997821;28;45407;-73
2021/12/15 02:25:43;;;;;;;;;46.33;37.33;;;;;10.81;67.22;102693.75;4998698;28;46619;-73
2021/12/15 02:28:09;;;;;;;;;44.00;37.33;;;;;10.59;67.56;102678.25;4998804;28;45411;-71
2021/12/15 02:30:56;;;;;;;;;50.00;37.33;;;;;10.57;67.27;102672.19;4980157;28;46683;-71
2021/12/15 02:33:44;;;;;;;;;40.67;35.33;;;;;10.83;67.53;102706.94;4978050;28;45627;-71
2021/12/15 02:38:55;;;;;;;;;50.67;37.33;;;;;10.81;66.81;102692.88;4982529;28;45679;-72
2021/12/15 02:41:23;;;;;;;;;48.67;37.00;;;;;10.84;67.41;102700.69;4997213;28;45948;-72
2021/12/15 02:43:59;;;;;;;;;44.67;36.67;;;;;10.83;66.31;102702.47;4997199;28;45675;-74
2021/12/15 02:46:29;;;;;;;;;43.33;35.00;;;;;10.48;66.99;102643.53;4996899;28;45546;-74
2021/12/15 02:48:55;;;;;;;;;42.67;34.00;;;;;10.91;66.91;102704.66;4997198;28;45349;-71
2021/12/15 02:51:21;;;;;;;;;40.33;34.67;;;;;10.93;66.67;102705.41;4986852;28;45425;-71
2021/12/15 02:53:46;;;;;;;;;47.67;37.00;;;;;10.89;66.82;102694.09;4978888;28;45467;-72
2021/12/15 02:56:14;;;;;;;;;37.33;32.00;;;;;10.96;66.40;102707.84;4978726;28;46047;-71
2021/12/15 02:58:48;;;;;;;;;41.00;35.67;;;;;11.02;66.85;102704.81;4983767;28;45614;-73
2021/12/15 03:01:21;;;;;;;;;43.00;35.67;;;;;11.01;66.51;102703.09;4977121;28;45583;-70
2021/12/15 03:06:44;;;;;;;;;43.67;36.00;;;;;11.06;66.32;102703.66;4979234;28;45388;-71
2021/12/15 03:15:30;;;;;;;;;41.00;35.00;;;;;10.98;66.42;102687.31;4986474;28;45497;-73
2021/12/15 03:17:25;;;;;;;;;40.33;33.00;;;;;10.97;65.87;102683.81;4996867;28;45286;-73
2021/12/15 03:19:52;;;;;;;;;42.67;33.67;;;;;10.95;66.13;102680.38;4996287;28;45480;-70
2021/12/15 03:22:17;;;;;;;;;41.67;32.00;;;;;11.00;66.14;102687.22;4997888;28;45250;-71
2021/12/15 03:24:43;;;;;;;;;39.33;33.33;;;;;11.04;65.74;102700.25;4996060;28;45535;-71
2021/12/15 03:27:15;;;;;;;;;37.00;32.67;;;;;10.91;66.21;102680.69;4997630;28;46228;-71
2021/12/15 03:37:45;;;;;;;;;40.67;34.33;;;;;10.81;66.35;102675.13;4977773;28;46588;-71
2021/12/15 03:40:15;;;;;;;;;43.00;36.33;;;;;10.95;65.82;102692.84;4977890;28;45448;-72
2021/12/15 03:42:54;;;;;;;;;34.33;31.00;;;;;11.00;65.99;102706.69;4977147;28;45282;-72
2021/12/15 03:45:25;;;;;;;;;36.00;28.67;;;;;10.99;65.80;102712.97;4990620;28;45555;-71
2021/12/15 03:47:53;;;;;;;;;44.00;37.00;;;;;10.96;66.02;102707.84;4996942;28;46013;-72
2021/12/15 03:50:21;;;;;;;;;38.00;33.67;;;;;10.98;65.86;102709.47;4997397;28;45454;-73
2021/12/15 03:52:49;;;;;;;;;41.67;33.67;;;;;10.82;65.61;102686.63;4995910;28;45453;-71
2021/12/15 03:55:16;;;;;;;;;35.00;32.00;;;;;10.97;65.84;102704.25;4995437;28;45607;-73
2021/12/15 03:57:42;;;;;;;;;40.67;33.00;;;;;10.98;65.84;102708.59;4996107;28;48322;-71
2021/12/15 04:00:10;;;;;;;;;40.67;33.00;;;;;10.87;65.88;102692.50;4997316;28;45412;-71
2021/12/15 04:02:35;;;;;;;;;29.33;26.67;;;;;10.88;65.59;102691.53;4997420;28;45325;-72
2021/12/15 04:05:01;;;;;;;;;44.33;36.00;;;;;10.79;66.11;102678.81;4986261;28;45484;-72
2021/12/15 04:07:26;;;;;;;;;44.67;34.00;;;;;10.45;65.68;102625.13;4977472;28;46104;-70
2021/12/15 04:09:53;;;;;;;;;38.00;31.67;;;;;10.77;65.90;102686.03;4978515;28;45483;-73
2021/12/15 04:12:19;;;;;;;;;35.33;28.00;;;;;9.99;65.94;102555.34;4997193;28;45444;-71
2021/12/15 04:14:53;;;;;;;;;33.00;30.00;;;;;10.87;65.63;102708.47;4997098;28;45210;-72
2021/12/15 04:17:26;;;;;;;;;35.33;31.00;;;;;10.83;65.83;102705.16;4996490;28;45487;-71
2021/12/15 04:19:57;;;;;;;;;40.67;33.67;;;;;10.46;65.73;102640.13;4994876;28;45524;-72
2021/12/15 04:22:24;;;;;;;;;42.33;33.00;;;;;10.83;66.26;102696.31;4996973;28;45354;-71
2021/12/15 04:24:51;;;;;;;;;34.33;32.67;;;;;10.88;66.29;102702.19;4997162;28;45362;-71
2021/12/15 04:27:17;;;;;;;;;31.00;28.67;;;;;10.72;66.15;102673.03;4996231;28;45443;-72
2021/12/15 04:29:44;;;;;;;;;36.00;32.67;;;;;10.87;66.40;102695.16;4997136;28;45342;-72
2021/12/15 04:32:18;;;;;;;;;36.33;31.33;;;;;10.80;65.83;102697.31;4977539;28;45361;-72
2021/12/15 04:34:43;;;;;;;;;38.00;33.00;;;;;10.77;66.00;102680.72;4977606;28;45329;-71
2021/12/15 04:37:09;;;;;;;;;31.33;30.33;;;;;10.81;66.44;102690.19;4991982;28;47482;-71
2021/12/15 04:39:34;;;;;;;;;32.00;28.67;;;;;10.91;66.00;102702.84;4977078;28;45459;-72
2021/12/15 04:42:01;;;;;;;;;33.33;31.33;;;;;10.86;65.70;102698.78;4994408;28;45443;-72
2021/12/15 04:44:29;;;;;;;;;39.00;32.67;;;;;10.87;66.11;102697.81;4996743;28;45431;-70
2021/12/15 04:47:05;;;;;;;;;32.00;30.67;;;;;10.94;65.81;102704.44;4996323;28;46625;-73
2021/12/15 04:49:35;;;;;;;;;38.00;32.67;;;;;9.85;65.84;102521.69;4995138;28;45627;-72
2021/12/15 04:52:02;;;;;;;;;30.33;26.67;;;;;10.97;65.46;102709.56;4996137;28;45349;-71
2021/12/15 04:54:28;;;;;;;;;34.00;30.00;;;;;10.52;65.34;102638.88;4996617;28;45376;-72
2021/12/15 04:56:54;;;;;;;;;34.00;31.00;;;;;10.94;65.52;102709.75;4996281;28;45715;-72
2021/12/15 04:59:19;;;;;;;;;34.33;30.67;;;;;10.78;65.58;102691.25;4994772;28;45530;-73
2021/12/15 05:01:46;;;;;;;;;30.00;27.00;;;;;10.88;65.81;102715.50;4981398;28;45500;-71
2021/12/15 05:04:12;;;;;;;;;30.00;28.33;;;;;10.70;65.66;102698.03;4976944;28;45313;-72
2021/12/15 05:06:39;;;;;;;;;34.67;31.00;;;;;10.62;65.60;102674.59;4980752;28;47838;-72
2021/12/15 05:09:06;;;;;;;;;42.00;31.67;;;;;10.83;65.39;102709.63;4993725;28;45515;-71
2021/12/15 05:11:32;;;;;;;;;37.33;31.33;;;;;10.84;65.65;102713.97;4996339;28;45231;-72
2021/12/15 05:13:57;;;;;;;;;39.67;30.00;;;;;10.45;65.44;102643.72;5011764;28;45463;-71
2021/12/15 05:16:23;;;;;;;;;30.33;28.67;;;;;10.89;65.37;102722.53;4996387;28;46674;-72
2021/12/15 05:18:49;;;;;;;;;35.33;31.00;;;;;10.96;65.25;102730.00;4981295;28;45307;-72
2021/12/15 05:21:16;;;;;;;;;38.00;31.00;;;;;10.98;65.51;102732.56;4977094;28;45506;-72
2021/12/15 05:23:44;;;;;;;;;33.33;31.00;;;;;10.96;65.22;102734.47;4976845;28;45494;-72
2021/12/15 05:26:10;;;;;;;;;31.33;29.00;;;;;10.83;65.52;102713.13;4991558;28;47611;-70
2021/12/15 05:28:35;;;;;;;;;36.67;32.00;;;;;10.82;64.91;102714.09;4989370;28;45512;-74
2021/12/15 05:31:01;;;;;;;;;39.67;33.00;;;;;10.86;65.48;102723.56;4996139;28;45258;-72
2021/12/15 05:33:26;;;;;;;;;34.33;30.67;;;;;10.91;65.04;102739.25;4996591;28;45306;-72
2021/12/15 05:35:53;;;;;;;;;36.00;27.33;;;;;10.91;65.23;102742.75;4996774;28;45570;-71
2021/12/15 05:38:18;;;;;;;;;31.67;29.33;;;;;10.97;65.35;102744.16;4996467;28;45455;-72
2021/12/15 05:40:44;;;;;;;;;31.67;28.33;;;;;10.62;65.12;102690.53;4984022;28;45496;-70
2021/12/15 05:43:10;;;;;;;;;29.00;26.67;;;;;10.89;65.07;102739.34;4978555;28;45389;-71
2021/12/15 05:45:39;;;;;;;;;35.00;31.67;;;;;10.38;64.76;102650.38;4978013;28;47334;-71
2021/12/15 05:48:10;;;;;;;;;30.67;28.00;;;;;10.76;65.47;102722.44;4979577;28;45424;-72
2021/12/15 05:50:36;;;;;;;;;26.00;23.67;;;;;10.85;64.73;102744.97;4979734;28;45258;-71
2021/12/15 05:53:02;;;;;;;;;33.00;29.67;;;;;10.89;64.91;102746.47;4977989;28;45303;-72
2021/12/15 05:55:28;;;;;;;;;32.00;26.67;;;;;10.74;64.79;102731.47;5011078;28;48359;-71
2021/12/15 05:57:54;;;;;;;;;31.67;27.00;;;;;10.70;65.15;102714.00;4997004;28;45327;-71
2021/12/15 06:00:25;;;;;;;;;29.67;26.67;;;;;10.76;65.51;102732.22;4999184;28;45435;-73
2021/12/15 06:02:52;;;;;;;;;29.00;27.33;;;;;10.89;64.84;102746.47;4997983;28;45336;-71
2021/12/15 06:05:18;;;;;;;;;36.33;32.33;;;;;10.93;64.73;102756.81;4998131;28;45687;-71
2021/12/15 06:07:44;;;;;;;;;29.33;28.33;;;;;10.90;64.56;102754.34;4998963;28;45499;-71
2021/12/15 06:10:12;;;;;;;;;26.67;24.00;;;;;10.88;64.95;102755.41;4997551;28;45406;-72
2021/12/15 06:12:38;;;;;;;;;34.00;30.33;;;;;10.95;65.17;102765.56;4998650;28;45310;-72
2021/12/15 06:15:06;;;;;;;;;38.67;30.67;;;;;10.57;64.88;102696.13;4985369;28;47937;-73
2021/12/15 06:17:32;;;;;;;;;39.67;32.67;;;;;11.00;64.57;102767.06;4999105;28;45347;-72
2021/12/15 06:19:58;;;;;;;;;26.67;26.33;;;;;10.92;64.30;102767.56;4998678;28;45463;-71
2021/12/15 06:22:26;;;;;;;;;30.67;24.00;;;;;10.92;64.50;102765.75;4996962;28;45576;-73
2021/12/15 06:24:54;;;;;;;;;28.33;26.00;;;;;10.79;64.81;102737.34;4993886;28;46771;-72
2021/12/15 06:27:21;;;;;;;;;30.00;27.33;;;;;11.04;64.58;102774.78;4998509;28;45545;-73
2021/12/15 06:29:49;;;;;;;;;26.00;24.33;;;;;10.97;64.07;102765.44;4997045;28;45252;-72
2021/12/15 06:32:15;;;;;;;;;31.33;28.67;;;;;11.06;63.96;102780.00;4998938;28;45495;-71
2021/12/15 06:34:41;;;;;;;;;26.33;23.67;;;;;10.99;64.69;102771.53;4995641;28;47620;-72
2021/12/15 06:37:07;;;;;;;;;29.00;25.67;;;;;10.75;64.78;102735.84;4979003;28;45677;-71
2021/12/15 06:39:33;;;;;;;;;34.67;29.00;;;;;10.46;64.74;102693.31;4978851;28;45232;-71
2021/12/15 06:41:58;;;;;;;;;30.00;26.00;;;;;11.01;64.82;102788.25;4978848;28;45207;-72
2021/12/15 06:44:24;;;;;;;;;28.00;25.33;;;;;10.59;64.18;102719.97;4993285;28;47707;-72
2021/12/15 07:00:44;;;;;;;;;32.00;28.00;;;;;11.08;64.36;102808.22;4978673;28;45432;-68
2021/12/15 07:03:10;;;;;;;;;24.67;21.67;;;;;10.99;63.69;102790.16;4976856;28;45441;-67
2021/12/15 07:05:35;;;;;;;;;24.67;22.00;;;;;10.92;63.82;102799.50;4985169;28;46344;-67
2021/12/15 07:08:03;;;;;;;;;26.00;22.00;;;;;10.97;63.99;102805.38;4996008;28;45490;-68
2021/12/15 07:10:31;;;;;;;;;29.67;25.00;;;;;10.97;64.69;102800.06;4997904;28;45416;-67
2021/12/15 07:12:58;;;;;;;;;30.33;26.33;;;;;10.91;64.30;102788.00;4995589;28;45653;-68
2021/12/15 07:15:24;;;;;;;;;30.33;26.33;;;;;11.07;64.60;102809.19;4990567;28;46854;-67
2021/12/15 07:17:53;;;;;;;;;29.33;26.67;;;;;11.10;64.15;102819.63;4988394;28;45593;-70
2021/12/15 07:23:01;;;;;;;;;29.67;29.33;;;;;11.09;64.07;102815.25;4978161;28;45461;-68
2021/12/15 07:25:27;;;;;;;;;32.00;26.00;;;;;11.10;63.98;102816.97;4977577;28;45437;-69
2021/12/15 07:27:54;;;;;;;;;24.33;24.33;;;;;11.12;64.16;102820.38;4976092;28;45575;-69
2021/12/15 07:30:20;;;;;;;;;22.33;20.67;;;;;11.11;63.79;102818.69;4977859;28;45332;-68
2021/12/15 07:32:47;;;;;;;;;22.67;22.00;;;;;11.12;62.86;102823.06;4977929;28;45270;-68
2021/12/15 07:35:15;;;;;;;;;24.67;21.67;;;;;11.10;63.68;102838.25;4977503;28;46187;-67
2021/12/15 07:37:41;;;;;;;;;23.00;20.67;;;;;11.03;63.42;102830.78;4976268;28;45418;-69
2021/12/15 07:40:12;;;;;;;;;26.00;20.00;;;;;10.73;63.80;102774.97;4977879;28;45441;-69
2021/12/15 07:42:53;;;;;;;;;12.33;12.00;;;;;11.02;63.31;102837.06;4977983;28;45485;-68
2021/12/15 07:45:22;;;;;;;;;17.67;16.00;;;;;11.06;63.29;102843.88;4976274;28;46720;-68
2021/12/15 07:47:48;;;;;;;;;20.00;20.00;;;;;10.88;63.75;102811.28;4995493;28;45347;-69
2021/12/15 07:50:13;;;;;;;;;26.33;25.67;;;;;11.12;63.93;102856.81;4997379;28;45338;-68
2021/12/15 07:52:38;;;;;;;;;20.67;19.67;;;;;11.14;63.50;102858.41;4995432;28;45528;-70
2021/12/15 07:55:04;;;;;;;;;20.33;19.67;;;;;11.12;63.79;102855.00;4996784;28;46584;-67
2021/12/15 07:57:30;;;;;;;;;22.00;20.00;;;;;11.09;63.66;102855.19;4994843;28;46470;-68
2021/12/15 07:59:58;;;;;;;;;23.67;20.33;;;;;11.05;64.15;102858.16;4995267;28;45333;-68
2021/12/15 08:02:27;;;;;;;;;21.33;19.00;;;;;11.04;64.22;102859.09;4996365;28;45230;-68
2021/12/15 08:04:52;;;;;;;;;19.00;18.33;;;;;10.50;63.84;102774.59;4996866;28;46370;-67
2021/12/15 08:07:17;;;;;;;;;23.00;21.67;;;;;10.91;64.49;102848.34;4996805;28;45300;-68
2021/12/15 08:09:45;;;;;;;;;26.67;20.67;;;;;10.95;64.26;102856.03;4994941;28;45994;-67
2021/12/15 08:12:11;;;;;;;;;15.00;14.00;;;;;10.65;64.11;102794.09;4994543;28;45365;-68
2021/12/15 08:14:37;;;;;;;;;22.33;17.67;;;;;10.99;64.42;102867.34;4995934;28;46665;-67
2021/12/15 08:17:02;;;;;;;;;22.67;19.33;;;;;10.90;64.57;102851.97;4995481;28;46103;-68
2021/12/15 08:19:28;;;;;;;;;25.67;23.33;;;;;10.89;64.63;102839.59;4995760;28;45512;-67
2021/12/15 08:21:53;;;;;;;;;23.00;22.67;;;;;11.04;65.00;102865.28;4992311;28;45563;-67
2021/12/15 08:24:19;;;;;;;;;14.00;14.00;;;;;10.96;64.23;102867.53;4995018;28;48220;-68
2021/12/15 08:26:44;;;;;;;;;22.67;20.33;;;;;10.91;64.40;102862.50;4994907;28;45384;-67
2021/12/15 08:29:11;;;;;;;;;30.00;23.67;;;;;10.84;65.10;102868.31;4995084;28;45432;-67
2021/12/15 08:31:37;;;;;;;;;14.00;14.00;;;;;10.74;65.16;102851.19;4995602;28;45318;-65
2021/12/15 08:34:03;;;;;;;;;25.00;22.00;;;;;10.80;65.72;102866.75;4994197;28;48087;-66
2021/12/15 08:36:28;;;;;;;;;33.00;31.00;;;;;10.69;65.57;102861.25;4994709;28;45478;-66
2021/12/15 08:38:56;;;;;;;;;29.67;24.33;;;;;10.63;66.31;102850.03;4994804;28;45227;-68
2021/12/15 08:41:26;;;;;;;;;27.33;26.33;;;;;10.89;65.75;102866.22;4992741;28;45537;-67
2021/12/15 08:43:52;;;;;;;;;25.33;24.33;;;;;10.76;65.75;102830.66;4994585;28;45956;-67
2021/12/15 08:46:25;;;;;;;;;25.33;23.67;;;;;10.86;65.40;102838.00;4993849;28;46643;-67
2021/12/15 08:48:51;;;;;;;;;30.00;26.00;;;;;11.12;65.29;102868.31;4994105;28;45480;-69
2021/12/15 08:51:25;;;;;;;;;23.00;21.33;;;;;11.17;64.70;102862.69;4995149;28;45175;-67
2021/12/15 08:53:51;;;;;;;;;28.33;26.00;;;;;10.93;64.57;102814.50;4993674;28;47027;-66
2021/12/15 08:56:17;;;;;;;;;34.00;31.00;;;;;11.24;64.41;102864.88;4994612;28;45453;-66
2021/12/15 08:58:42;;;;;;;;;28.33;27.33;;;;;11.28;64.33;102853.09;4994404;28;45347;-67
2021/12/15 09:01:09;;;;;;;;;18.33;17.33;;;;;11.25;64.05;102857.75;4995292;28;45417;-67
2021/12/15 09:03:35;;;;;;;;;20.33;19.00;;;;;11.10;64.46;102843.59;4993244;28;47960;-66
2021/12/15 09:06:02;;;;;;;;;32.67;26.33;;;;;11.28;64.28;102879.72;4994061;28;45424;-68
2021/12/15 09:08:28;;;;;;;;;31.00;27.67;;;;;11.27;64.57;102875.34;4995221;28;45471;-65
2021/12/15 09:10:56;;;;;;;;;32.33;27.00;;;;;11.12;64.79;102860.31;4995566;28;45467;-67
2021/12/15 09:13:22;;;;;;;;;28.67;26.00;;;;;10.93;64.61;102819.81;4997376;28;45652;-67
2021/12/15 09:15:48;;;;;;;;;23.67;20.00;;;;;11.31;64.84;102885.78;4998434;28;45482;-66
2021/12/15 09:18:14;;;;;;;;;30.67;28.00;;;;;11.28;65.26;102879.72;4996974;28;45365;-69
2021/12/15 09:20:41;;;;;;;;;29.33;25.00;;;;;11.37;64.83;102888.91;4998934;28;45373;-67
2021/12/15 09:23:09;;;;;;;;;29.67;24.00;;;;;10.77;64.86;102784.47;4997762;28;45913;-66
2021/12/15 09:25:36;;;;;;;;;25.67;21.33;;;;;10.96;65.34;102819.63;4998450;28;45393;-67
2021/12/15 09:28:02;;;;;;;;;28.33;23.67;;;;;11.37;64.85;102880.06;4998144;28;45356;-67
2021/12/15 09:30:30;;;;;;;;;25.33;23.00;;;;;10.42;64.79;102701.56;4998564;28;45455;-66
2021/12/15 09:32:56;;;;;;;;;27.00;25.00;;;;;11.16;65.05;102826.38;4997696;28;47868;-66
2021/12/15 09:35:24;;;;;;;;;23.00;21.33;;;;;11.47;64.95;102890.06;4998651;28;45440;-65
2021/12/15 09:37:51;;;;;;;;;29.33;25.67;;;;;11.41;64.86;102889.56;4998406;28;46122;-66
2021/12/15 09:40:18;;;;;;;;;24.33;23.33;;;;;11.41;64.51;102890.47;4996938;28;45591;-68
2021/12/15 09:42:46;;;;;;;;;34.33;24.67;;;;;11.40;64.95;102888.72;4997899;28;48369;-66
2021/12/15 09:45:46;;;;;;;;;30.33;23.33;;;;;11.14;65.21;102855.75;4997716;28;45537;-65
2021/12/15 10:04:36;;;;;;;;;20.00;19.67;;;;;11.43;64.75;102856.59;4997484;28;46858;-66
2021/12/15 10:19:09;;;;;;;;;33.67;29.67;;;;;11.06;64.96;102809.28;4997999;28;45633;-67
2021/12/15 10:21:06;;;;;;;;;31.00;25.33;;;;;11.65;65.12;102897.84;4993942;28;45560;-66
2021/12/15 10:23:39;;;;;;;;;31.00;28.67;;;;;11.61;65.35;102897.16;4996434;28;45547;-65
2021/12/15 10:26:07;;;;;;;;;29.00;26.00;;;;;11.63;64.80;102892.59;4995396;28;46637;-66
2021/12/15 10:28:38;;;;;;;;;35.00;28.00;;;;;11.23;65.24;102823.25;5012332;28;45353;-66
2021/12/15 10:31:11;;;;;;;;;30.00;27.00;;;;;11.73;65.13;102892.84;4996563;28;45234;-66
2021/12/15 10:33:44;;;;;;;;;28.67;27.00;;;;;11.65;64.90;102871.19;4995347;28;45630;-66
2021/12/15 10:36:12;;;;;;;;;26.00;22.00;;;;;11.82;64.36;102900.31;4996774;28;46701;-66
2021/12/15 10:38:49;;;;;;;;;29.67;28.67;;;;;11.76;64.60;102895.31;4995677;28;45547;-68
2021/12/15 10:41:21;;;;;;;;;28.00;25.33;;;;;11.63;64.45;102876.63;4997029;28;45756;-67
2021/12/15 10:43:51;;;;;;;;;27.00;25.67;;;;;11.76;64.47;102890.84;4995452;28;45278;-67
2021/12/15 10:46:38;;;;;;;;;31.33;29.00;;;;;11.92;64.36;102895.22;4996879;28;46674;-66
2021/12/15 10:49:11;;;;;;;;;29.67;27.00;;;;;11.92;64.08;102873.91;4997462;28;45396;-67
2021/12/15 10:51:47;;;;;;;;;28.00;26.67;;;;;11.23;64.21;102764.66;4996970;28;45558;-67
2021/12/15 10:54:31;;;;;;;;;22.33;22.00;;;;;11.54;64.41;102815.94;4996790;28;45380;-69
2021/12/15 10:57:01;;;;;;;;;26.67;21.67;;;;;11.86;63.75;102865.34;4996650;28;47159;-67
2021/12/15 10:59:34;;;;;;;;;22.33;21.00;;;;;11.96;64.13;102862.91;4995520;28;45466;-68
2021/12/15 11:02:00;;;;;;;;;28.67;25.67;;;;;12.04;63.98;102873.94;4996567;28;45515;-68
2021/12/15 11:04:31;;;;;;;;;26.00;22.33;;;;;12.14;63.58;102884.84;4997576;28;45257;-69
2021/12/15 11:07:08;;;;;;;;;20.00;17.67;;;;;12.13;63.15;102880.47;4996251;28;45896;-67
2021/12/15 11:09:42;;;;;;;;;30.00;24.00;;;;;12.18;63.33;102884.53;4996441;28;45510;-67
2021/12/15 11:12:18;;;;;;;;;24.00;24.00;;;;;12.19;63.15;102880.06;4994457;28;45463;-68
2021/12/15 11:14:47;;;;;;;;;23.33;21.00;;;;;12.17;63.25;102880.16;4996456;28;45286;-68
2021/12/15 11:17:25;;;;;;;;;25.33;21.67;;;;;12.17;63.54;102865.97;4976314;28;48564;-69
2021/12/15 11:19:58;;;;;;;;;22.00;16.67;;;;;12.18;62.82;102859.69;4989889;28;45572;-67
2021/12/15 11:22:41;;;;;;;;;15.33;15.00;;;;;12.30;62.75;102880.19;4988225;28;45590;-66
2021/12/15 11:25:33;;;;;;;;;19.67;16.00;;;;;12.29;62.47;102883.84;4996097;28;45625;-67
2021/12/15 11:28:09;;;;;;;;;13.67;13.33;;;;;12.32;61.98;102878.28;4965151;28;46554;-70
2021/12/15 11:30:38;;;;;;;;;13.67;12.33;;;;;12.21;62.47;102880.81;4990757;28;45587;-69
2021/12/15 11:33:08;;;;;;;;;16.67;11.00;;;;;11.81;62.72;102811.50;5012130;28;45618;-68
2021/12/15 11:35:38;;;;;;;;;11.67;11.67;;;;;12.15;62.10;102867.88;4994875;28;45463;-69
2021/12/15 11:38:13;;;;;;;;;18.00;15.33;;;;;12.04;63.22;102871.28;4992818;28;46502;-68
2021/12/15 11:40:46;;;;;;;;;13.00;11.33;;;;;11.92;62.99;102847.25;4995891;28;45380;-67
2021/12/15 11:43:33;;;;;;;;;7.33;6.33;;;;;11.95;63.13;102857.69;4996311;28;45306;-68
2021/12/15 11:46:00;;;;;;;;;10.00;10.00;;;;;12.06;63.43;102871.19;4996288;28;45556;-67
2021/12/15 11:48:32;;;;;;;;;14.00;11.33;;;;;12.04;63.05;102851.78;4978875;28;46529;-69
2021/12/15 11:51:04;;;;;;;;;12.67;12.00;;;;;11.81;62.67;102808.84;4995832;28;45412;-67
2021/12/15 11:53:41;;;;;;;;;18.33;15.00;;;;;12.00;63.03;102850.25;4995722;28;45443;-68
2021/12/15 11:56:34;;;;;;;;;12.00;12.00;;;;;12.14;63.01;102876.84;4996191;28;45533;-68
2021/12/15 11:59:18;;;;;;;;;13.67;12.67;;;;;12.13;63.27;102873.31;4992563;28;46606;-70
2021/12/15 12:01:52;;;;;;;;;12.00;12.00;;;;;12.09;63.32;102855.84;4995746;28;45503;-66
2021/12/15 12:04:37;;;;;;;;;16.00;14.00;;;;;12.07;62.87;102860.41;4994953;28;45405;-68
2021/12/15 12:07:27;;;;;;;;;19.67;16.67;;;;;12.02;63.14;102867.03;4995944;28;45488;-67
2021/12/15 12:10:09;;;;;;;;;16.33;15.00;;;;;11.96;63.60;102860.25;4975925;28;46783;-66
2021/12/15 12:12:41;;;;;;;;;18.00;13.33;;;;;11.85;63.64;102845.00;4979881;28;45749;-66
2021/12/15 12:15:13;;;;;;;;;19.33;18.33;;;;;11.99;63.59;102859.19;4994909;28;45477;-66
2021/12/15 12:17:40;;;;;;;;;14.33;13.00;;;;;12.02;63.81;102849.22;4994388;28;45567;-70
2021/12/15 12:20:12;;;;;;;;;14.33;14.33;;;;;11.89;63.05;102832.31;4995270;28;45783;-67
2021/12/15 12:22:40;;;;;;;;;17.00;15.00;;;;;11.95;63.80;102852.38;4996369;28;45365;-69
2021/12/15 12:25:16;;;;;;;;;13.67;13.67;;;;;11.73;63.45;102823.56;4996337;28;45345;-66
2021/12/15 12:27:43;;;;;;;;;18.33;15.67;;;;;11.98;63.61;102858.34;4976864;28;45861;-68
2021/12/15 12:30:17;;;;;;;;;15.67;13.67;;;;;11.91;63.55;102841.06;4976428;28;45294;-67